Time;durP1;ratioP1;P1;durP2;ratioP2;P2;SDS_P1;SDS_P2;PMS_P1;PMS_P2;Temp;Humidity;BMP_temperature;BMP_pressure;BME280_temperature;BME280_humidity;BME280_pressure;Samples;Min_cycle;Max_cycle;Signal;HPM_P1;HPM_P2
2021/03/03 00:00:43;;;;;;;10.20;5.17;;;;;;;1.25;78.93;100395.82;1629501;86;21201;-65
2021/03/03 00:03:12;;;;;;;9.65;4.95;;;;;;;1.21;79.12;100397.23;1617390;89;21367;-66
2021/03/03 00:05:41;;;;;;;8.60;4.87;;;;;;;1.29;78.84;100398.44;1630902;87;21243;-65
2021/03/03 00:08:08;;;;;;;9.65;5.15;;;;;;;1.20;79.38;100400.96;1618012;89;21218;-65
2021/03/03 00:10:36;;;;;;;9.45;4.92;;;;;;;1.21;79.28;100402.59;1630737;86;21577;-65
2021/03/03 00:13:04;;;;;;;9.03;4.62;;;;;;;1.30;78.93;100400.10;1607791;89;21200;-65
2021/03/03 00:15:32;;;;;;;8.48;4.40;;;;;;;1.18;79.31;100411.55;1593962;89;21190;-65
2021/03/03 00:18:00;;;;;;;7.55;4.30;;;;;;;1.20;79.35;100414.38;1617307;87;21316;-64
2021/03/03 00:20:28;;;;;;;9.68;5.00;;;;;;;1.22;79.13;100410.97;1617772;87;21167;-65
2021/03/03 00:22:55;;;;;;;8.33;4.60;;;;;;;1.11;79.56;100414.69;1607258;89;21192;-65
2021/03/03 00:25:23;;;;;;;8.08;5.03;;;;;;;1.13;79.48;100418.85;1635669;87;21319;-66
2021/03/03 00:27:50;;;;;;;9.53;5.40;;;;;;;1.18;79.31;100413.72;1618066;89;21238;-65
2021/03/03 00:30:19;;;;;;;8.48;4.87;;;;;;;1.13;79.63;100414.00;1615329;89;21206;-64
2021/03/03 00:32:47;;;;;;;7.62;4.75;;;;;;;1.09;79.62;100420.77;1636095;87;21205;-65
2021/03/03 00:35:15;;;;;;;9.70;5.05;;;;;;;1.13;79.63;100418.02;1642754;87;21182;-65
2021/03/03 00:37:43;;;;;;;8.75;5.08;;;;;;;1.16;79.46;100416.28;1651648;85;21195;-65
2021/03/03 00:40:12;;;;;;;8.63;4.95;;;;;;;1.07;79.61;100418.27;1650145;87;21627;-66
2021/03/03 00:42:39;;;;;;;9.28;4.95;;;;;;;1.10;79.50;100419.21;1646233;85;21166;-65
2021/03/03 00:45:08;;;;;;;9.83;5.45;;;;;;;1.13;79.27;100418.02;1675744;85;21686;-66
2021/03/03 00:47:36;;;;;;;10.10;5.10;;;;;;;1.05;79.41;100422.17;1665926;85;21629;-65
2021/03/03 00:50:07;;;;;;;8.45;4.72;;;;;;;0.95;79.57;100415.30;1659023;85;21321;-65
2021/03/03 00:52:35;;;;;;;9.68;4.53;;;;;;;0.94;79.88;100419.00;1671047;85;21190;-66
2021/03/03 00:55:05;;;;;;;11.18;4.47;;;;;;;1.02;79.71;100422.56;1656263;85;21590;-66
2021/03/03 00:57:34;;;;;;;9.13;4.28;;;;;;;0.97;79.90;100423.97;1652632;85;21682;-66
2021/03/03 01:00:06;;;;;;;9.80;4.55;;;;;;;0.94;80.05;100424.86;1674467;85;21136;-65
2021/03/03 01:02:34;;;;;;;7.50;4.05;;;;;;;0.99;79.95;100427.27;1630210;85;21348;-65
2021/03/03 01:05:05;;;;;;;10.28;5.00;;;;;;;0.99;79.75;100423.25;1665841;85;21142;-66
2021/03/03 01:07:32;;;;;;;8.50;4.33;;;;;;;0.94;79.75;100420.84;1654410;85;21193;-65
2021/03/03 01:10:00;;;;;;;8.88;3.95;;;;;;;0.95;79.85;100429.22;1674400;85;21178;-65
2021/03/03 01:12:28;;;;;;;7.55;4.17;;;;;;;0.98;79.71;100425.63;1675796;85;21138;-66
2021/03/03 01:14:56;;;;;;;10.70;5.03;;;;;;;0.94;79.78;100438.27;1669422;85;21543;-65
2021/03/03 01:17:24;;;;;;;7.95;4.10;;;;;;;0.97;79.64;100440.05;1659598;85;21123;-66
2021/03/03 01:19:52;;;;;;;9.40;4.60;;;;;;;1.03;79.34;100444.34;1676243;85;21160;-65
2021/03/03 01:22:20;;;;;;;8.60;4.70;;;;;;;0.92;79.56;100445.69;1653481;85;21183;-65
2021/03/03 01:24:47;;;;;;;9.28;4.17;;;;;;;0.92;79.45;100448.37;1668742;85;21198;-66
2021/03/03 01:27:15;;;;;;;8.15;4.75;;;;;;;0.98;79.30;100446.25;1675294;85;21206;-65
2021/03/03 01:29:43;;;;;;;10.38;5.42;;;;;;;0.87;79.74;100451.61;1667086;85;21183;-66
2021/03/03 01:32:11;;;;;;;10.08;5.47;;;;;;;0.80;80.02;100449.89;1671411;85;21182;-66
2021/03/03 01:34:39;;;;;;;9.75;5.17;;;;;;;0.89;79.57;100454.09;1676374;85;21144;-65
2021/03/03 01:37:07;;;;;;;8.73;5.17;;;;;;;0.86;79.69;100449.11;1673379;85;21158;-66
2021/03/03 01:39:35;;;;;;;7.95;4.80;;;;;;;0.77;79.65;100453.79;1699472;84;21264;-66
2021/03/03 01:42:03;;;;;;;9.28;4.80;;;;;;;0.69;79.79;100453.91;1681343;84;21363;-65
2021/03/03 01:44:30;;;;;;;10.15;4.90;;;;;;;0.67;80.60;100462.66;1698504;84;21339;-65
2021/03/03 01:46:58;;;;;;;7.12;4.30;;;;;;;0.76;80.01;100456.14;1706067;82;21589;-64
2021/03/03 01:49:26;;;;;;;9.13;4.97;;;;;;;0.77;79.89;100467.70;1702884;84;21210;-65
2021/03/03 01:51:53;;;;;;;9.20;4.83;;;;;;;0.68;80.14;100458.09;1703695;82;21131;-64
2021/03/03 01:54:21;;;;;;;9.40;4.83;;;;;;;0.62;80.15;100451.66;1704863;84;21311;-64
2021/03/03 01:56:48;;;;;;;9.65;5.10;;;;;;;0.72;79.82;100460.72;1684827;84;21182;-66
2021/03/03 01:59:16;;;;;;;9.03;4.85;;;;;;;0.64;80.10;100454.17;1683025;84;21182;-66
2021/03/03 02:01:43;;;;;;;9.70;4.72;;;;;;;0.56;80.28;100456.95;1698756;84;21154;-66
2021/03/03 02:04:11;;;;;;;7.42;4.58;;;;;;;0.56;80.20;100459.64;1705148;84;21336;-65
2021/03/03 02:06:48;;;;;;;9.48;4.92;;;;;;;0.56;80.40;100458.30;1695657;84;21566;-65
2021/03/03 02:09:21;;;;;;;8.45;4.45;;;;;;;0.44;80.95;100454.77;1667870;85;21622;-65
2021/03/03 02:19:24;;;;;;;8.68;4.67;;;;;;;0.41;80.94;100461.02;1812054;79;23680;-67
2021/03/03 02:22:21;;;;;;;8.40;4.62;;;;;;;0.47;80.78;100469.12;1781614;78;21553;-67
2021/03/03 02:25:14;;;;;;;9.20;4.40;;;;;;;0.46;80.62;100471.47;1708941;83;21295;-64
2021/03/03 02:27:42;;;;;;;9.05;4.25;;;;;;;0.31;81.19;100480.06;1722198;83;21412;-66
2021/03/03 02:30:11;;;;;;;8.90;4.30;;;;;;;0.33;81.36;100482.03;1702717;84;21641;-64
2021/03/03 02:32:39;;;;;;;9.68;4.47;;;;;;;0.44;80.67;100482.89;1732720;83;21171;-66
2021/03/03 02:35:10;;;;;;;8.30;4.58;;;;;;;0.39;80.76;100479.94;1729065;83;21169;-65
2021/03/03 02:37:38;;;;;;;9.38;4.37;;;;;;;0.33;81.23;100483.88;1703213;83;21254;-65
2021/03/03 02:40:10;;;;;;;9.20;4.28;;;;;;;0.41;80.84;100492.65;1726653;83;21149;-64
2021/03/03 02:42:38;;;;;;;9.88;4.70;;;;;;;0.36;80.87;100487.52;1704536;83;21158;-66
2021/03/03 02:45:10;;;;;;;9.25;4.75;;;;;;;0.32;81.17;100502.33;1724622;83;21165;-65
2021/03/03 02:47:38;;;;;;;8.45;4.47;;;;;;;0.40;80.80;100490.14;1716981;82;21774;-64
2021/03/03 02:50:08;;;;;;;7.22;4.22;;;;;;;0.36;80.75;100497.73;1711079;82;21181;-65
2021/03/03 02:52:56;;;;;;;6.87;4.22;;;;;;;0.28;81.06;100496.52;1682902;84;21184;-65
2021/03/03 02:55:26;;;;;;;9.25;4.80;;;;;;;0.31;81.00;100499.31;1713452;82;21161;-65
2021/03/03 02:57:55;;;;;;;8.95;4.60;;;;;;;0.38;80.73;100504.25;1710890;84;21192;-65
2021/03/03 03:00:41;;;;;;;10.72;5.40;;;;;;;0.28;80.89;100501.03;1714865;82;21629;-67
2021/03/03 03:03:35;;;;;;;8.25;4.05;;;;;;;0.20;81.14;100505.14;1735094;82;21569;-65
2021/03/03 03:06:28;;;;;;;8.60;4.67;;;;;;;0.25;81.10;100510.25;1723223;82;21149;-65
2021/03/03 03:09:15;;;;;;;8.48;4.30;;;;;;;0.19;81.19;100520.38;1711013;84;21699;-64
2021/03/03 03:12:01;;;;;;;12.23;4.30;;;;;;;0.12;81.43;100526.66;1713021;82;21592;-66
2021/03/03 03:14:47;;;;;;;7.65;4.78;;;;;;;0.15;81.46;100508.37;1711082;84;21594;-66
2021/03/03 03:17:15;;;;;;;9.93;4.80;;;;;;;0.17;81.29;100513.05;1695562;83;21651;-65
2021/03/03 03:19:44;;;;;;;9.80;4.58;;;;;;;0.07;81.61;100517.86;1697908;83;21150;-65
2021/03/03 03:22:14;;;;;;;9.40;4.35;;;;;;;0.07;81.95;100522.38;1695506;84;21770;-65
2021/03/03 03:24:42;;;;;;;8.30;4.80;;;;;;;0.18;81.46;100520.05;1737359;82;21158;-64
2021/03/03 03:27:11;;;;;;;8.48;4.20;;;;;;;0.13;81.38;100531.84;1710328;84;21177;-65
2021/03/03 03:29:39;;;;;;;8.45;4.35;;;;;;;0.03;81.71;100525.93;1727350;82;21146;-66
2021/03/03 03:32:09;;;;;;;10.05;4.62;;;;;;;0.06;81.74;100521.55;1715622;82;21683;-65
2021/03/03 03:34:37;;;;;;;9.95;4.15;;;;;;;0.08;81.70;100522.67;1699466;84;21161;-64
2021/03/03 03:37:05;;;;;;;10.95;5.10;;;;;;;0.02;81.70;100526.94;1696931;84;21386;-65
2021/03/03 03:39:35;;;;;;;11.15;4.78;;;;;;;-0.05;81.88;100525.52;1684161;84;21617;-65
2021/03/03 03:42:03;;;;;;;10.35;5.30;;;;;;;0.00;81.91;100524.43;1700393;84;21159;-65
2021/03/03 03:44:32;;;;;;;8.48;4.92;;;;;;;0.03;81.64;100515.73;1699162;83;21332;-65
2021/03/03 03:46:59;;;;;;;8.38;4.20;;;;;;;-0.07;82.07;100517.32;1718806;82;21189;-65
2021/03/03 03:49:27;;;;;;;8.05;4.60;;;;;;;-0.04;81.89;100518.31;1684146;85;21209;-65
2021/03/03 03:51:54;;;;;;;8.50;4.37;;;;;;;0.02;81.43;100521.59;1695723;83;21312;-66
2021/03/03 03:54:22;;;;;;;8.25;4.35;;;;;;;-0.07;81.70;100524.84;1713502;82;21304;-66
2021/03/03 03:56:49;;;;;;;9.00;4.53;;;;;;;-0.14;81.74;100532.45;1740444;82;21173;-66
2021/03/03 03:59:16;;;;;;;11.73;4.92;;;;;;;-0.12;81.59;100535.29;1711458;84;21485;-66
2021/03/03 04:01:44;;;;;;;10.93;5.10;;;;;;;-0.11;81.45;100545.49;1699601;84;21320;-65
2021/03/03 04:04:12;;;;;;;11.20;5.53;;;;;;;-0.19;81.61;100536.20;1707239;84;21185;-66
2021/03/03 04:06:40;;;;;;;11.78;5.47;;;;;;;-0.25;82.01;100539.62;1693432;83;21641;-66
2021/03/03 04:09:07;;;;;;;12.33;6.05;;;;;;;-0.17;81.95;100538.17;1685448;84;21257;-66
2021/03/03 04:11:35;;;;;;;13.53;5.85;;;;;;;-0.15;81.75;100543.69;1712209;83;21734;-65
2021/03/03 04:14:09;;;;;;;12.75;6.15;;;;;;;-0.23;81.83;100538.41;1726879;82;21157;-64
2021/03/03 04:16:34;;;;;;;11.75;6.20;;;;;;;-0.29;81.92;100539.15;1716680;82;21182;-65
2021/03/03 04:19:01;;;;;;;12.07;5.53;;;;;;;-0.23;81.79;100538.41;1720997;82;21585;-65
2021/03/03 04:21:29;;;;;;;12.33;5.97;;;;;;;-0.22;81.71;100547.27;1691913;84;21604;-65
2021/03/03 04:23:57;;;;;;;11.95;6.40;;;;;;;-0.31;81.90;100549.19;1721417;83;21327;-64
2021/03/03 04:26:24;;;;;;;11.78;5.42;;;;;;;-0.35;81.88;100543.87;1709328;83;21236;-63
2021/03/03 04:28:52;;;;;;;12.20;5.65;;;;;;;-0.27;81.63;100545.64;1719133;83;21142;-65
2021/03/03 04:31:20;;;;;;;8.85;5.10;;;;;;;-0.30;81.66;100548.18;1699807;83;21161;-65
2021/03/03 04:33:47;;;;;;;11.88;5.87;;;;;;;-0.41;82.23;100549.95;1701987;84;21621;-64
2021/03/03 04:36:15;;;;;;;11.33;4.37;;;;;;;-0.38;82.05;100550.09;1703032;83;21791;-65
2021/03/03 04:38:42;;;;;;;10.72;5.33;;;;;;;-0.35;81.86;100556.41;1695156;83;21217;-65
2021/03/03 04:41:09;;;;;;;10.08;4.83;;;;;;;-0.44;82.11;100557.51;1694947;84;21313;-64
2021/03/03 04:43:37;;;;;;;10.50;5.00;;;;;;;-0.51;82.73;100562.75;1715929;83;21170;-65
2021/03/03 04:46:05;;;;;;;9.65;5.08;;;;;;;-0.41;82.42;100556.64;1696017;84;21628;-65
2021/03/03 04:48:32;;;;;;;12.47;6.75;;;;;;;-0.40;82.45;100568.17;1695130;83;21632;-64
2021/03/03 04:50:59;;;;;;;12.13;6.08;;;;;;;-0.52;82.89;100571.28;1712682;83;21220;-66
2021/03/03 04:53:27;;;;;;;8.73;5.25;;;;;;;-0.47;82.87;100577.44;1704650;84;21645;-65
2021/03/03 04:55:54;;;;;;;11.10;5.67;;;;;;;-0.42;82.56;100582.22;1695487;83;21658;-65
2021/03/03 04:58:22;;;;;;;13.08;6.47;;;;;;;-0.47;82.82;100584.62;1694913;84;21170;-66
2021/03/03 05:00:50;;;;;;;12.68;6.47;;;;;;;-0.46;82.79;100587.09;1714635;82;21181;-65
2021/03/03 05:03:19;;;;;;;12.58;6.20;;;;;;;-0.37;82.79;100593.23;1717874;82;21870;-64
2021/03/03 05:05:47;;;;;;;14.13;7.17;;;;;;;-0.34;82.67;100597.70;1715525;82;21207;-64
2021/03/03 05:08:15;;;;;;;10.50;6.00;;;;;;;-0.40;82.80;100598.44;1720448;82;21351;-65
2021/03/03 05:10:42;;;;;;;14.13;6.37;;;;;;;-0.35;82.63;100595.20;1714686;82;21169;-66
2021/03/03 05:13:15;;;;;;;10.50;5.60;;;;;;;-0.27;82.39;100613.37;1713316;84;21339;-65
2021/03/03 05:15:43;;;;;;;11.25;5.47;;;;;;;-0.27;82.54;100608.52;1713518;84;21162;-65
2021/03/03 05:18:11;;;;;;;11.50;5.72;;;;;;;-0.28;82.58;100605.50;1715842;82;21312;-64
2021/03/03 05:20:39;;;;;;;10.05;5.40;;;;;;;-0.13;82.20;100617.09;1687726;83;21738;-64
2021/03/03 05:23:07;;;;;;;11.97;6.17;;;;;;;-0.10;82.15;100621.57;1768982;80;21233;-64
2021/03/03 05:25:35;;;;;;;12.07;7.37;;;;;;;-0.10;82.26;100618.89;1776618;80;21183;-64
2021/03/03 05:28:03;;;;;;;11.28;6.33;;;;;;;-0.11;82.35;100623.91;1751963;80;21159;-64
2021/03/03 05:30:31;;;;;;;10.40;5.62;;;;;;;0.04;82.01;100617.78;1750812;82;21118;-64
2021/03/03 05:32:59;;;;;;;13.18;6.20;;;;;;;0.09;81.75;100632.78;1730748;81;21134;-65
2021/03/03 05:35:26;;;;;;;14.05;6.45;;;;;;;0.05;81.94;100634.98;1751550;80;21592;-65
2021/03/03 05:37:54;;;;;;;12.33;6.50;;;;;;;0.05;81.99;100634.15;1771269;80;21158;-65
2021/03/03 05:40:22;;;;;;;11.85;6.30;;;;;;;0.23;81.72;100639.50;1768611;80;21142;-65
2021/03/03 05:42:50;;;;;;;12.37;7.20;;;;;;;0.38;81.37;100640.34;1753102;82;21142;-65
2021/03/03 05:45:18;;;;;;;11.15;6.75;;;;;;;0.42;81.35;100638.97;1753673;82;21283;-66
2021/03/03 05:47:46;;;;;;;11.18;7.12;;;;;;;0.45;81.37;100638.59;1753424;80;21648;-61
2021/03/03 05:50:15;;;;;;;12.68;7.10;;;;;;;0.60;80.48;100644.46;1750756;82;21308;-62
2021/03/03 05:52:43;;;;;;;10.93;7.85;;;;;;;0.71;80.19;100650.70;1758829;80;21162;-62
2021/03/03 05:55:13;;;;;;;13.20;8.18;;;;;;;0.71;80.02;100642.66;1752953;80;21156;-61
2021/03/03 05:57:40;;;;;;;15.48;8.98;;;;;;;0.71;80.20;100647.48;1752205;81;21302;-61
2021/03/03 06:00:11;;;;;;;15.53;8.68;;;;;;;0.91;79.95;100651.27;1751181;80;21141;-61
2021/03/03 06:02:38;;;;;;;14.00;8.25;;;;;;;1.22;79.31;100651.52;1751671;80;21299;-63
2021/03/03 06:05:11;;;;;;;13.32;7.40;;;;;;;1.46;79.44;100652.00;1697743;83;21680;-60
2021/03/03 06:07:38;;;;;;;15.20;8.55;;;;;;;1.70;78.35;100654.80;1774731;80;21121;-61
2021/03/03 06:10:08;;;;;;;14.53;8.13;;;;;;;1.95;77.68;100657.41;1755771;80;21552;-62
2021/03/03 06:12:35;;;;;;;11.28;6.62;;;;;;;2.09;75.04;100660.23;1766289;80;21655;-60
2021/03/03 06:15:05;;;;;;;9.65;5.85;;;;;;;2.12;74.56;100659.33;1752630;80;21601;-62
2021/03/03 06:17:33;;;;;;;10.45;5.67;;;;;;;2.32;74.32;100658.95;1754192;80;21149;-61
2021/03/03 06:20:04;;;;;;;9.63;5.42;;;;;;;2.16;73.21;100635.05;1752545;81;21185;-61
2021/03/03 06:22:31;;;;;;;10.78;6.25;;;;;;;2.34;73.28;100666.80;1748120;81;21617;-62
2021/03/03 06:24:59;;;;;;;10.23;6.10;;;;;;;2.44;73.10;100665.44;1744954;81;21185;-63
2021/03/03 06:27:38;;;;;;;12.88;6.30;;;;;;;2.56;72.14;100663.55;1696431;84;21792;-62
2021/03/03 06:30:09;;;;;;;8.65;4.67;;;;;;;2.82;72.44;100654.30;1697390;84;21185;-63
2021/03/03 06:32:55;;;;;;;10.70;6.53;;;;;;;3.04;71.82;100656.38;1697141;83;21192;-63
2021/03/03 06:35:44;;;;;;;10.53;6.33;;;;;;;3.03;70.79;100650.66;1678464;84;21213;-62
2021/03/03 06:38:14;;;;;;;12.15;6.20;;;;;;;3.09;70.98;100650.69;1692933;84;21205;-63
2021/03/03 06:43:37;;;;;;;9.15;4.95;;;;;;;3.32;70.06;100643.13;1810949;79;22982;-62
2021/03/03 06:46:18;;;;;;;10.60;5.58;;;;;;;3.53;69.05;100646.69;1776333;80;21177;-63
2021/03/03 06:48:46;;;;;;;9.90;5.53;;;;;;;3.45;67.92;100641.81;1755016;82;21149;-62
2021/03/03 06:51:25;;;;;;;12.68;5.83;;;;;;;3.47;68.47;100641.08;1721595;82;21315;-62
2021/03/03 06:53:55;;;;;;;10.15;5.67;;;;;;;3.47;68.00;100647.00;1691256;84;21457;-62
2021/03/03 06:56:40;;;;;;;11.25;5.78;;;;;;;3.43;68.31;100646.58;1688234;85;21193;-61
2021/03/03 07:01:55;;;;;;;10.63;5.40;;;;;;;3.25;69.16;100634.72;1790720;79;23451;-63
2021/03/03 07:04:31;;;;;;;9.28;5.20;;;;;;;3.45;68.82;100639.12;1763105;80;21298;-62
2021/03/03 07:07:05;;;;;;;8.98;5.03;;;;;;;3.59;67.35;100636.44;1766171;80;21211;-64
2021/03/03 07:09:59;;;;;;;9.70;4.53;;;;;;;3.57;67.36;100648.78;1780115;80;21157;-64
2021/03/03 07:12:30;;;;;;;8.83;4.47;;;;;;;3.60;67.46;100647.02;1768732;80;21117;-63
2021/03/03 07:15:08;;;;;;;7.78;4.47;;;;;;;3.61;66.89;100645.99;1769900;80;21149;-63
2021/03/03 07:17:43;;;;;;;7.10;4.08;;;;;;;3.73;66.80;100641.64;1790871;80;21117;-64
2021/03/03 07:20:16;;;;;;;8.53;4.42;;;;;;;3.95;66.32;100641.78;1768643;80;21204;-65
2021/03/03 07:22:50;;;;;;;7.10;4.08;;;;;;;4.02;65.38;100644.47;1768374;80;21994;-63
2021/03/03 07:25:20;;;;;;;11.15;4.78;;;;;;;3.98;65.45;100644.56;1761496;80;21180;-62
2021/03/03 07:27:49;;;;;;;8.05;5.05;;;;;;;3.91;65.30;100653.16;1729426;81;21184;-61
2021/03/03 07:30:22;;;;;;;9.15;4.95;;;;;;;3.97;65.97;100648.28;1703032;83;21225;-63
2021/03/03 07:32:50;;;;;;;8.93;4.78;;;;;;;4.08;65.63;100642.28;1716643;82;21520;-63
2021/03/03 07:35:19;;;;;;;7.85;4.50;;;;;;;4.19;64.91;100640.83;1705670;82;21304;-63
2021/03/03 07:37:57;;;;;;;7.80;4.40;;;;;;;4.25;64.36;100648.09;1726050;82;21161;-64
2021/03/03 07:40:29;;;;;;;7.30;4.42;;;;;;;4.23;64.65;100649.64;1733013;82;21169;-70
2021/03/03 07:43:00;;;;;;;7.97;4.70;;;;;;;4.17;63.91;100645.09;1722360;82;21133;-65
2021/03/03 07:45:35;;;;;;;7.40;4.40;;;;;;;4.26;64.57;100648.39;1730344;82;21216;-63
2021/03/03 07:48:10;;;;;;;8.58;5.17;;;;;;;4.39;64.19;100647.05;1711097;82;21176;-61
2021/03/03 07:50:38;;;;;;;7.33;4.75;;;;;;;4.48;64.11;100645.78;1728336;82;21173;-62
2021/03/03 07:53:07;;;;;;;8.48;4.78;;;;;;;4.68;63.36;100648.42;1722328;82;21167;-63
2021/03/03 07:55:34;;;;;;;10.10;4.50;;;;;;;4.90;62.48;100646.60;1671402;82;21206;-62
2021/03/03 07:58:06;;;;;;;7.35;3.75;;;;;;;5.00;61.87;100651.53;1717409;82;21140;-64
2021/03/03 08:00:35;;;;;;;7.65;4.45;;;;;;;4.98;61.94;100643.67;1697509;83;21648;-65
2021/03/03 08:03:05;;;;;;;7.90;4.42;;;;;;;5.18;61.62;100642.23;1716753;82;21155;-63
2021/03/03 08:05:39;;;;;;;8.25;4.78;;;;;;;5.38;61.46;100645.68;1721738;83;21162;-64
2021/03/03 08:08:33;;;;;;;7.83;4.62;;;;;;;5.48;60.74;100639.28;1779894;80;21136;-64
2021/03/03 08:11:06;;;;;;;8.10;4.35;;;;;;;5.67;60.11;100645.59;1723099;83;21215;-64
2021/03/03 08:13:36;;;;;;;9.85;4.55;;;;;;;5.65;60.11;100638.75;1719296;83;21122;-62
2021/03/03 08:16:05;;;;;;;8.95;5.15;;;;;;;5.60;59.69;100644.00;1765201;80;21182;-63
2021/03/03 08:18:36;;;;;;;7.70;4.58;;;;;;;5.60;60.15;100650.20;1765667;80;21168;-62
2021/03/03 08:21:18;;;;;;;8.85;4.67;;;;;;;5.65;59.81;100650.91;1743510;80;21600;-62
2021/03/03 08:23:52;;;;;;;8.40;5.08;;;;;;;5.71;60.32;100650.86;1758398;80;21081;-62
2021/03/03 08:26:28;;;;;;;8.70;5.22;;;;;;;5.79;58.97;100647.08;1740884;82;21206;-64
2021/03/03 08:28:57;;;;;;;8.35;4.15;;;;;;;5.70;59.41;100641.64;1755619;81;21298;-62
2021/03/03 08:31:24;;;;;;;6.55;4.30;;;;;;;5.77;59.48;100647.83;1747679;80;21199;-61
2021/03/03 08:33:56;;;;;;;7.78;4.45;;;;;;;5.87;58.59;100646.33;1773341;80;21157;-62
2021/03/03 08:36:34;;;;;;;8.58;4.83;;;;;;;5.90;59.33;100647.23;1772509;80;21291;-61
2021/03/03 08:41:43;;;;;;;10.78;4.70;;;;;;;5.92;59.32;100652.41;1785720;79;22881;-62
2021/03/03 08:44:15;;;;;;;7.58;4.58;;;;;;;5.81;59.65;100649.86;1758076;81;21323;-62
2021/03/03 08:46:47;;;;;;;9.28;5.22;;;;;;;5.92;59.59;100642.95;1734418;80;21196;-63
2021/03/03 08:49:25;;;;;;;7.30;4.37;;;;;;;5.95;58.74;100646.04;1759488;80;21145;-62
2021/03/03 08:52:09;;;;;;;7.72;4.42;;;;;;;5.82;59.54;100649.34;1752187;81;21226;-62
2021/03/03 08:54:44;;;;;;;9.88;5.30;;;;;;;5.80;59.29;100641.98;1743333;81;21259;-60
2021/03/03 08:57:33;;;;;;;8.25;4.78;;;;;;;5.67;59.55;100652.34;1754686;80;21125;-62
2021/03/03 09:00:01;;;;;;;10.13;5.00;;;;;;;5.66;60.04;100653.41;1760253;80;21128;-63
2021/03/03 09:02:36;;;;;;;9.18;4.97;;;;;;;5.75;59.76;100655.30;1743425;80;21585;-63
2021/03/03 09:05:09;;;;;;;9.05;5.08;;;;;;;5.53;59.41;100621.89;1752453;81;21180;-62
2021/03/03 09:07:36;;;;;;;8.18;4.97;;;;;;;5.66;59.57;100658.81;1758035;81;21588;-62
2021/03/03 09:10:14;;;;;;;8.90;5.65;;;;;;;5.61;59.99;100664.54;1760850;81;21208;-62
2021/03/03 09:12:43;;;;;;;9.25;5.12;;;;;;;5.66;59.79;100663.38;1760991;81;21307;-63
2021/03/03 09:15:15;;;;;;;10.88;5.50;;;;;;;5.66;59.63;100656.63;1760719;81;21802;-62
2021/03/03 09:17:44;;;;;;;8.63;5.35;;;;;;;5.57;60.25;100653.86;1751552;81;21206;-63
2021/03/03 09:20:35;;;;;;;8.40;4.75;;;;;;;5.57;60.00;100661.96;1758638;80;21342;-62
2021/03/03 09:23:03;;;;;;;9.08;4.83;;;;;;;5.57;59.95;100657.91;1729380;81;21143;-62
2021/03/03 09:25:30;;;;;;;8.20;5.25;;;;;;;5.60;59.45;100664.26;1749086;80;21159;-62
2021/03/03 09:27:58;;;;;;;9.08;4.83;;;;;;;5.59;59.21;100662.59;1778741;78;21529;-62
2021/03/03 09:30:28;;;;;;;10.98;5.50;;;;;;;5.61;59.33;100665.38;1755475;81;21711;-62
2021/03/03 09:32:56;;;;;;;7.50;4.47;;;;;;;5.59;59.40;100662.08;1723613;83;21576;-63
2021/03/03 09:35:28;;;;;;;9.00;4.85;;;;;;;5.59;58.82;100655.33;1731514;83;21186;-62
2021/03/03 09:37:56;;;;;;;9.43;4.67;;;;;;;5.57;58.93;100659.27;1745747;82;21174;-62
2021/03/03 09:40:32;;;;;;;9.63;5.72;;;;;;;5.46;59.62;100658.08;1745483;82;21732;-62
2021/03/03 09:43:00;;;;;;;11.08;5.40;;;;;;;5.57;60.59;100664.14;1684496;85;21176;-63
2021/03/03 09:45:28;;;;;;;10.88;5.83;;;;;;;5.73;60.69;100661.47;1702589;84;21220;-63
2021/03/03 09:47:56;;;;;;;10.55;6.58;;;;;;;5.68;60.05;100668.03;1728399;83;21214;-63
2021/03/03 09:50:29;;;;;;;9.38;5.60;;;;;;;5.58;60.79;100663.63;1741022;81;21198;-61
2021/03/03 09:52:58;;;;;;;9.05;5.67;;;;;;;5.61;60.89;100659.97;1756145;81;21143;-63
2021/03/03 09:55:31;;;;;;;9.15;5.92;;;;;;;5.69;60.62;100662.42;1741611;81;21198;-63
2021/03/03 09:57:59;;;;;;;11.45;6.12;;;;;;;5.70;60.52;100667.31;1747269;81;22046;-64
2021/03/03 10:00:30;;;;;;;9.30;4.83;;;;;;;5.72;60.42;100662.50;1728766;81;21632;-64
2021/03/03 10:03:04;;;;;;;9.18;5.08;;;;;;;5.83;60.16;100655.89;1730715;81;21245;-63
2021/03/03 10:05:34;;;;;;;9.65;5.83;;;;;;;5.88;59.57;100659.33;1693536;79;63595;-70
2021/03/03 10:08:05;;;;;;;10.00;5.28;;;;;;;5.68;59.76;100659.41;1670973;86;21197;-69
2021/03/03 10:10:40;;;;;;;8.08;4.42;;;;;;;5.69;59.69;100656.19;1664655;86;21326;-70
2021/03/03 10:13:20;;;;;;;9.05;4.03;;;;;;;5.63;58.48;100649.80;1691376;84;21181;-70
2021/03/03 10:15:48;;;;;;;6.53;4.22;;;;;;;5.61;58.87;100649.69;1650008;87;21688;-70
2021/03/03 10:18:16;;;;;;;7.25;4.37;;;;;;;5.75;58.70;100644.50;1675422;85;21189;-70
2021/03/03 10:20:54;;;;;;;8.20;4.22;;;;;;;5.79;57.77;100644.37;1677036;85;21786;-69
2021/03/03 10:23:26;;;;;;;11.40;4.83;;;;;;;5.72;57.86;100635.48;1677330;85;21583;-70
2021/03/03 10:26:05;;;;;;;8.60;4.47;;;;;;;5.59;58.36;100634.23;1675439;85;21194;-70
2021/03/03 10:28:33;;;;;;;8.33;4.67;;;;;;;5.49;58.82;100636.06;1676050;85;21655;-69
2021/03/03 10:31:05;;;;;;;7.87;4.60;;;;;;;5.32;59.26;100635.72;1695716;84;21156;-70
2021/03/03 10:33:40;;;;;;;10.68;5.65;;;;;;;5.36;59.66;100633.42;1677306;84;21159;-70
2021/03/03 10:36:20;;;;;;;10.35;7.17;;;;;;;5.47;59.65;100636.27;1667018;82;21175;-69
2021/03/03 10:38:55;;;;;;;8.50;4.85;;;;;;;5.61;59.29;100629.42;1721989;82;21144;-70
2021/03/03 10:41:27;;;;;;;9.25;5.25;;;;;;;5.63;59.14;100636.29;1684651;83;21169;-70
2021/03/03 10:43:54;;;;;;;6.50;4.20;;;;;;;5.68;59.22;100631.56;1677828;84;21148;-70
2021/03/03 10:46:24;;;;;;;10.35;4.70;;;;;;;5.69;58.57;100631.36;1692147;84;21221;-69
2021/03/03 10:49:10;;;;;;;8.85;4.25;;;;;;;5.71;58.55;100631.13;1701031;83;21150;-70
2021/03/03 10:51:38;;;;;;;6.78;3.90;;;;;;;5.75;58.50;100622.89;1715530;82;21723;-70
2021/03/03 10:54:07;;;;;;;9.50;3.95;;;;;;;5.73;58.19;100620.42;1679152;84;21184;-70
2021/03/03 10:56:38;;;;;;;6.20;3.60;;;;;;;5.80;58.84;100621.72;1722291;82;21162;-70
2021/03/03 10:59:11;;;;;;;6.78;3.62;;;;;;;5.98;58.89;100624.00;1719015;82;21285;-69
2021/03/03 11:04:55;;;;;;;7.03;3.35;;;;;;;6.13;56.56;100614.73;1756915;79;23662;-67
2021/03/03 11:07:24;;;;;;;7.28;3.37;;;;;;;5.89;56.60;100609.09;1832318;78;21116;-66
2021/03/03 11:09:52;;;;;;;6.85;3.77;;;;;;;5.73;56.88;100604.73;1829307;78;21160;-67
2021/03/03 11:12:24;;;;;;;7.22;3.98;;;;;;;5.79;57.85;100603.84;1827244;78;21144;-67
2021/03/03 11:14:51;;;;;;;9.08;4.25;;;;;;;5.89;57.84;100599.64;1829478;78;21164;-67
2021/03/03 11:17:20;;;;;;;8.38;4.10;;;;;;;5.90;57.42;100593.19;1829545;78;21587;-67
2021/03/03 11:19:47;;;;;;;8.48;4.05;;;;;;;5.90;57.46;100603.17;1823904;78;21140;-68
2021/03/03 11:22:15;;;;;;;7.92;3.85;;;;;;;5.90;57.89;100604.52;1803666;78;21143;-67
2021/03/03 11:24:42;;;;;;;7.67;3.90;;;;;;;5.92;58.15;100599.19;1812026;78;21254;-67
2021/03/03 11:27:09;;;;;;;8.13;4.15;;;;;;;5.95;57.58;100600.65;1796767;80;21302;-67
2021/03/03 11:29:37;;;;;;;7.72;4.40;;;;;;;5.93;57.98;100595.97;1797812;78;21290;-67
2021/03/03 11:32:07;;;;;;;10.75;4.90;;;;;;;5.97;58.34;100589.91;1813743;78;21282;-66
2021/03/03 11:34:35;;;;;;;6.33;3.60;;;;;;;6.08;57.80;100584.31;1798830;78;21175;-66
2021/03/03 11:37:03;;;;;;;7.30;4.05;;;;;;;6.14;57.09;100590.17;1796842;80;21169;-63
2021/03/03 11:39:30;;;;;;;6.80;4.00;;;;;;;6.11;56.83;100583.02;1804644;78;21124;-64
2021/03/03 11:41:58;;;;;;;9.23;4.78;;;;;;;6.15;56.97;100584.23;1796587;80;21177;-62
2021/03/03 11:44:27;;;;;;;7.95;4.47;;;;;;;6.15;56.77;100581.54;1796620;80;21172;-65
2021/03/03 11:46:54;;;;;;;9.85;4.70;;;;;;;6.12;56.60;100580.63;1796632;80;21144;-64
2021/03/03 11:49:22;;;;;;;7.92;3.83;;;;;;;6.04;56.88;100581.73;1801697;78;21112;-62
2021/03/03 11:51:49;;;;;;;7.05;4.22;;;;;;;5.99;56.58;100581.56;1819294;78;21604;-62
2021/03/03 11:54:17;;;;;;;9.65;4.00;;;;;;;5.94;55.78;100579.55;1802189;78;21153;-62
2021/03/03 11:56:46;;;;;;;7.40;3.70;;;;;;;6.02;56.03;100577.09;1818003;78;21486;-63
2021/03/03 11:59:13;;;;;;;7.58;3.40;;;;;;;6.08;55.77;100573.50;1808883;78;21104;-62
2021/03/03 12:01:44;;;;;;;6.70;3.17;;;;;;;6.05;54.97;100580.70;1812529;78;21100;-63
2021/03/03 12:04:11;;;;;;;7.17;3.08;;;;;;;6.02;54.64;100571.69;1812870;78;21570;-62